Fidelity
UTM 11U Easting = 45 1062, Northing = 56 76123     Elevation = 1905 m
Note to Users: This site contains raw data and is presented "as is" and in real time. Although reasonable care is exercised in providing this information, inaccuracies or omissions may occur due to the properties of weather and data collection systems. The Avalanche Control Section, responsible for its collection, disclaims all responsibility for the accuracy of the information.
Date Max Temp (deg C) Min Temp (deg C) Rel Hum (%) 1 Hr Precip (mm) 1 Hr Snow (cm) HS (cm) HN24 (cm) ILWR Max ILWR Min ILWR Ave ISWR Max ISWR Min ISWR Ave
2021-01-17 05:00 -6 -7 89 0.7 0 274 8 283 0 284 285 0 0
2021-01-17 06:00 -7 -7 89 1.3 3 276 10 282 0 284 285 0 0
2021-01-17 07:00 -7 -7 89 0.6 0 274 11 283 0 283 284 0 0
2021-01-17 08:00 -7 -7 89 1.2 3 279 13 283 0 284 286 6 1
2021-01-17 09:00 -5 -7 92 0.6 0 280 14 285 2 290 292 100 25
2021-01-17 10:00 -5 -6 90 1.2 2 281 15 291 32 292 293 127 66
2021-01-17 11:00 -4 -5 90 0.5 0 280 15 292 60 295 296 234 150
2021-01-17 12:00 -4 -5 89 0.8 1 280 16 295 68 295 296 214 135
2021-01-17 13:00 -4 -5 90 0.7 0 281 16 294 68 295 295 169 103
2021-01-17 14:00 -4 -5 90 1.0 3 284 19 294 50 295 296 117 81
2021-01-17 15:00 -4 -5 90 0.8 0 283 18 295 35 295 296 104 63
2021-01-17 16:00 -4 -5 89 0.9 0 284 19 294 7 294 295 48 21
2021-01-17 17:00 -4 -5 89 0.6 1 286 20 294 0 294 294 11 2
2021-01-17 18:00 -4 -5 88 0.4 0 286 21 294 0 294 294 0 0
2021-01-17 19:00 -4 -5 88 0.4 0 286 20 294 0 294 295 0 0
2021-01-17 20:00 -4 -5 88 0.4 3 286 23 294 0 295 295 0 0
2021-01-17 21:00 -4 -5 89 0.6 0 287 21 293 0 294 295 0 0
2021-01-17 22:00 -4 -5 89 0.7 0 287 22 293 0 294 294 0 0
2021-01-17 23:00 -4 -5 90 0.9 1 288 23 293 0 293 294 0 0
2021-01-18 00:00 -5 -5 90 0.5 0 287 23 293 0 293 293 0 0
2021-01-18 01:00 -5 -5 89 0.4 0 286 23 293 0 293 294 0 0
2021-01-18 02:00 -5 -5 90 0.4 0 287 23 292 0 293 293 0 0
2021-01-18 03:00 -5 -5 90 0.6 2 288 24 292 0 293 293 0 0
2021-01-18 04:00 -5 -5 89 0.6 0 288 24 292 0 293 293 0 0